This is the latest recevied weather packets stored in our database for station/object KI4FRU. If no packets are shown the sender has not sent any weather packets the latest 10 day(s).
| Time | Temp. | Humidity | Pressure | Rain* | Wind** | Luminosity | Snow |
|---|---|---|---|---|---|---|---|
| 1777914754 | 26.11° C | 49% | 1054.9 hPa | 0 mm | - | 75 W/m² | - |
| 1777914451 | 24.44° C | 45% | 1055.1 hPa | 0 mm | - | 752 W/m² | - |
| 1777914149 | 25° C | 46% | 1055 hPa | 0 mm | - | 746 W/m² | - |
| 1777913845 | 25.56° C | 46% | 1055.1 hPa | 0 mm | - | 83 W/m² | - |
| 1777913541 | 24.44° C | 43% | 1055.2 hPa | 0 mm | - | 478 W/m² | - |
| 1777913238 | 24.44° C | 46% | 1055.4 hPa | 0 mm | - | 661 W/m² | - |
| 1777912935 | 24.44° C | 46% | 1055.4 hPa | 0 mm | - | 666 W/m² | - |
| 1777912631 | 25.56° C | 47% | 1055.5 hPa | 0 mm | - | 728 W/m² | - |
| 1777912327 | 25.56° C | 45% | 1055.3 hPa | 0 mm | - | 105 W/m² | - |
| 1777912023 | 23.89° C | 47% | 1055.5 hPa | 0 mm | - | 728 W/m² | - |
| 1777911719 | 25° C | 46% | 1055.6 hPa | 0 mm | - | 91 W/m² | - |
| 1777911415 | 23.89° C | 49% | 1055.6 hPa | 0 mm | - | 685 W/m² | - |
| 1777911113 | 23.33° C | 51% | 1055.6 hPa | 0 mm | - | 682 W/m² | - |
| 1777910810 | 22.22° C | 48% | 1055.9 hPa | 0 mm | - | 698 W/m² | - |
| 1777910507 | 21.67° C | 48% | 1055.8 hPa | 0 mm | - | 668 W/m² | - |
| 1777910204 | 22.22° C | 48% | 1056.1 hPa | 0 mm | - | 631 W/m² | - |
| 1777909901 | 22.78° C | 48% | 1056.1 hPa | 0 mm | - | 183 W/m² | - |
| 1777909597 | 21.67° C | 53% | 1056.4 hPa | 0 mm | - | 675 W/m² | - |
| 1777909295 | 20.56° C | 53% | 1056.3 hPa | 0 mm | - | 463 W/m² | - |
| 1777908993 | 21.67° C | 55% | 1056.5 hPa | 0 mm | - | 71 W/m² | - |
| 1777908691 | 21.11° C | 56% | 1056.5 hPa | 0 mm | - | 71 W/m² | - |
| 1777908387 | 20.56° C | 53% | 1056.6 hPa | 0 mm | - | 57 W/m² | - |
| 1777908084 | 20.56° C | 52% | 1056.7 hPa | 0 mm | - | 52 W/m² | - |
| 1777907780 | 20° C | 58% | 1056.8 hPa | 0 mm | - | 48 W/m² | - |
| 1777907474 | 20° C | 54% | 1056.9 hPa | 0 mm | - | 40 W/m² | - |
* Rain latest hour (hover to see other rain measurements)
** Current wind speed in m/s (hover to see current wind gust speed)